<?xml version="1.0" encoding="utf-8"?>
<gpx xmlns:xsi="http://www.w3.org/2001/XMLSchema-instance" xmlns:xsd="http://www.w3.org/2001/XMLSchema" version="1.1" creator="Shapelink.com" xmlns="http://www.topografix.com/GPX/1/1" xmlns:gpxtpx="http://www.garmin.com/xmlschemas/TrackPointExtension/v1">
  <metadata>
    <name>Löpning 6.78 km, 2020-02-25</name>
    <desc></desc>
    <author><name>Per Rooth</name></author> 
    <time>2020-02-25T18:18:26Z</time>
  </metadata>
  <trk>
    <name>Löpning 6.78 km, 2020-02-25</name>
    <trkseg>
      <trkpt lat="56.891045874168" lon="14.824281481246">
        <ele>172</ele>
        <time>2020-02-25T18:18:26Z</time>
      </trkpt>
      <trkpt lat="56.891032798404" lon="14.824327330239">
        <ele>174.6</ele>
        <time>2020-02-25T18:18:27Z</time>
      </trkpt>
      <trkpt lat="56.891021482839" lon="14.824377286363">
        <ele>173.4</ele>
        <time>2020-02-25T18:18:28Z</time>
      </trkpt>
      <trkpt lat="56.89099206237" lon="14.824455405671">
        <ele>174.4</ele>
        <time>2020-02-25T18:18:30Z</time>
      </trkpt>
      <trkpt lat="56.890878655263" lon="14.824581385628">
        <ele>173.4</ele>
        <time>2020-02-25T18:18:34Z</time>
      </trkpt>
      <trkpt lat="56.890805648914" lon="14.82475891427">
        <ele>172.2</ele>
        <time>2020-02-25T18:18:37Z</time>
      </trkpt>
      <trkpt lat="56.890766924536" lon="14.824898556724">
        <ele>170.8</ele>
        <time>2020-02-25T18:18:39Z</time>
      </trkpt>
      <trkpt lat="56.890715543489" lon="14.825029817278">
        <ele>169.8</ele>
        <time>2020-02-25T18:18:41Z</time>
      </trkpt>
      <trkpt lat="56.890661983148" lon="14.825145068403">
        <ele>169.6</ele>
        <time>2020-02-25T18:18:43Z</time>
      </trkpt>
      <trkpt lat="56.890546229109" lon="14.825413037746">
        <ele>169.4</ele>
        <time>2020-02-25T18:18:48Z</time>
      </trkpt>
      <trkpt lat="56.890430894165" lon="14.825730125023">
        <ele>168.6</ele>
        <time>2020-02-25T18:18:53Z</time>
      </trkpt>
      <trkpt lat="56.890354702694" lon="14.826079314977">
        <ele>168.6</ele>
        <time>2020-02-25T18:18:58Z</time>
      </trkpt>
      <trkpt lat="56.890312793194" lon="14.826313924358">
        <ele>168</ele>
        <time>2020-02-25T18:19:02Z</time>
      </trkpt>
      <trkpt lat="56.890252359695" lon="14.826350553261">
        <ele>167.8</ele>
        <time>2020-02-25T18:19:04Z</time>
      </trkpt>
      <trkpt lat="56.890131827973" lon="14.826267823908">
        <ele>168.2</ele>
        <time>2020-02-25T18:19:07Z</time>
      </trkpt>
      <trkpt lat="56.889967375095" lon="14.826134886974">
        <ele>167.8</ele>
        <time>2020-02-25T18:19:11Z</time>
      </trkpt>
      <trkpt lat="56.889763192011" lon="14.825963896214">
        <ele>168</ele>
        <time>2020-02-25T18:19:16Z</time>
      </trkpt>
      <trkpt lat="56.889589854319" lon="14.825840849922">
        <ele>168.6</ele>
        <time>2020-02-25T18:19:21Z</time>
      </trkpt>
      <trkpt lat="56.88946823295" lon="14.825718474182">
        <ele>167.4</ele>
        <time>2020-02-25T18:19:25Z</time>
      </trkpt>
      <trkpt lat="56.889388018167" lon="14.825423431302">
        <ele>167.8</ele>
        <time>2020-02-25T18:19:30Z</time>
      </trkpt>
      <trkpt lat="56.889421713405" lon="14.825324524882">
        <ele>168.2</ele>
        <time>2020-02-25T18:19:32Z</time>
      </trkpt>
      <trkpt lat="56.889446607648" lon="14.825281609554">
        <ele>168.6</ele>
        <time>2020-02-25T18:19:33Z</time>
      </trkpt>
      <trkpt lat="56.88955875747" lon="14.825000983542">
        <ele>169.2</ele>
        <time>2020-02-25T18:19:38Z</time>
      </trkpt>
      <trkpt lat="56.889628243421" lon="14.824715915123">
        <ele>169.6</ele>
        <time>2020-02-25T18:19:44Z</time>
      </trkpt>
      <trkpt lat="56.889645342497" lon="14.824622624576">
        <ele>170.8</ele>
        <time>2020-02-25T18:19:46Z</time>
      </trkpt>
      <trkpt lat="56.889652048017" lon="14.824510726211">
        <ele>171.8</ele>
        <time>2020-02-25T18:19:48Z</time>
      </trkpt>
      <trkpt lat="56.889640145719" lon="14.824152316167">
        <ele>172.8</ele>
        <time>2020-02-25T18:19:53Z</time>
      </trkpt>
      <trkpt lat="56.889621370263" lon="14.823812430122">
        <ele>172</ele>
        <time>2020-02-25T18:19:58Z</time>
      </trkpt>
      <trkpt lat="56.889622795186" lon="14.823453265707">
        <ele>173</ele>
        <time>2020-02-25T18:20:03Z</time>
      </trkpt>
      <trkpt lat="56.889659843184" lon="14.823316892194">
        <ele>173.8</ele>
        <time>2020-02-25T18:20:05Z</time>
      </trkpt>
      <trkpt lat="56.889755145387" lon="14.823009444102">
        <ele>173</ele>
        <time>2020-02-25T18:20:10Z</time>
      </trkpt>
      <trkpt lat="56.889821697673" lon="14.822773074522">
        <ele>172</ele>
        <time>2020-02-25T18:20:14Z</time>
      </trkpt>
      <trkpt lat="56.889926387604" lon="14.822503931713">
        <ele>172.8</ele>
        <time>2020-02-25T18:20:19Z</time>
      </trkpt>
      <trkpt lat="56.889947174716" lon="14.822446767155">
        <ele>173</ele>
        <time>2020-02-25T18:20:20Z</time>
      </trkpt>
      <trkpt lat="56.890004423093" lon="14.822279883526">
        <ele>174.2</ele>
        <time>2020-02-25T18:20:23Z</time>
      </trkpt>
      <trkpt lat="56.890130235412" lon="14.821961622783">
        <ele>173.4</ele>
        <time>2020-02-25T18:20:29Z</time>
      </trkpt>
      <trkpt lat="56.89018320902" lon="14.821887442968">
        <ele>172.8</ele>
        <time>2020-02-25T18:20:31Z</time>
      </trkpt>
      <trkpt lat="56.890361994947" lon="14.822122555263">
        <ele>172.8</ele>
        <time>2020-02-25T18:20:36Z</time>
      </trkpt>
      <trkpt lat="56.890526280187" lon="14.822276866042">
        <ele>173.8</ele>
        <time>2020-02-25T18:20:41Z</time>
      </trkpt>
      <trkpt lat="56.890590317903" lon="14.822331013116">
        <ele>174</ele>
        <time>2020-02-25T18:20:43Z</time>
      </trkpt>
      <trkpt lat="56.890759464645" lon="14.822487503189">
        <ele>173.2</ele>
        <time>2020-02-25T18:20:48Z</time>
      </trkpt>
      <trkpt lat="56.89079341134" lon="14.82252094697">
        <ele>173</ele>
        <time>2020-02-25T18:20:49Z</time>
      </trkpt>
      <trkpt lat="56.890975801484" lon="14.822715993783">
        <ele>172.8</ele>
        <time>2020-02-25T18:20:55Z</time>
      </trkpt>
      <trkpt lat="56.891153749221" lon="14.822887319819">
        <ele>174</ele>
        <time>2020-02-25T18:21:01Z</time>
      </trkpt>
      <trkpt lat="56.891253745288" lon="14.822974994493">
        <ele>172.8</ele>
        <time>2020-02-25T18:21:04Z</time>
      </trkpt>
      <trkpt lat="56.891350556233" lon="14.823166772365">
        <ele>172.4</ele>
        <time>2020-02-25T18:21:08Z</time>
      </trkpt>
      <trkpt lat="56.891281573196" lon="14.823512441921">
        <ele>172.4</ele>
        <time>2020-02-25T18:21:14Z</time>
      </trkpt>
      <trkpt lat="56.891134722308" lon="14.823795331046">
        <ele>172.4</ele>
        <time>2020-02-25T18:21:20Z</time>
      </trkpt>
      <trkpt lat="56.891012765663" lon="14.824068161891">
        <ele>172.6</ele>
        <time>2020-02-25T18:21:25Z</time>
      </trkpt>
      <trkpt lat="56.890967503403" lon="14.824423889727">
        <ele>172.6</ele>
        <time>2020-02-25T18:21:31Z</time>
      </trkpt>
      <trkpt lat="56.890888797362" lon="14.824629246277">
        <ele>171.6</ele>
        <time>2020-02-25T18:21:35Z</time>
      </trkpt>
      <trkpt lat="56.890789890942" lon="14.824865867314">
        <ele>170.6</ele>
        <time>2020-02-25T18:21:39Z</time>
      </trkpt>
      <trkpt lat="56.890715208213" lon="14.825071475321">
        <ele>169.2</ele>
        <time>2020-02-25T18:21:42Z</time>
      </trkpt>
      <trkpt lat="56.890610015368" lon="14.82529451768">
        <ele>168.2</ele>
        <time>2020-02-25T18:21:46Z</time>
      </trkpt>
      <trkpt lat="56.890587803333" lon="14.825339696121">
        <ele>169.2</ele>
        <time>2020-02-25T18:21:47Z</time>
      </trkpt>
      <trkpt lat="56.890461571919" lon="14.825599032107">
        <ele>170</ele>
        <time>2020-02-25T18:21:52Z</time>
      </trkpt>
      <trkpt lat="56.890380686584" lon="14.825965404956">
        <ele>168.8</ele>
        <time>2020-02-25T18:21:57Z</time>
      </trkpt>
      <trkpt lat="56.890365180069" lon="14.826026592826">
        <ele>168.2</ele>
        <time>2020-02-25T18:21:58Z</time>
      </trkpt>
      <trkpt lat="56.890333664125" lon="14.826149136204">
        <ele>166.8</ele>
        <time>2020-02-25T18:22:00Z</time>
      </trkpt>
      <trkpt lat="56.890305752398" lon="14.826344518293">
        <ele>168.2</ele>
        <time>2020-02-25T18:22:03Z</time>
      </trkpt>
      <trkpt lat="56.890270716056" lon="14.826440071953">
        <ele>170</ele>
        <time>2020-02-25T18:22:05Z</time>
      </trkpt>
      <trkpt lat="56.890235092981" lon="14.826445184912">
        <ele>170.4</ele>
        <time>2020-02-25T18:22:06Z</time>
      </trkpt>
      <trkpt lat="56.890042896014" lon="14.826308476123">
        <ele>170.6</ele>
        <time>2020-02-25T18:22:11Z</time>
      </trkpt>
      <trkpt lat="56.889859164766" lon="14.826149890575">
        <ele>170.2</ele>
        <time>2020-02-25T18:22:16Z</time>
      </trkpt>
      <trkpt lat="56.889687587273" lon="14.825995663615">
        <ele>169.2</ele>
        <time>2020-02-25T18:22:21Z</time>
      </trkpt>
      <trkpt lat="56.889501928188" lon="14.825834814954">
        <ele>169.6</ele>
        <time>2020-02-25T18:22:27Z</time>
      </trkpt>
      <trkpt lat="56.889342588269" lon="14.825601881953">
        <ele>170.2</ele>
        <time>2020-02-25T18:22:33Z</time>
      </trkpt>
      <trkpt lat="56.889331440342" lon="14.825553015476">
        <ele>170</ele>
        <time>2020-02-25T18:22:34Z</time>
      </trkpt>
      <trkpt lat="56.889348120323" lon="14.825459808748">
        <ele>169.8</ele>
        <time>2020-02-25T18:22:36Z</time>
      </trkpt>
      <trkpt lat="56.889485583483" lon="14.825238778045">
        <ele>170</ele>
        <time>2020-02-25T18:22:41Z</time>
      </trkpt>
      <trkpt lat="56.889596140744" lon="14.824923702424">
        <ele>170.6</ele>
        <time>2020-02-25T18:22:47Z</time>
      </trkpt>
      <trkpt lat="56.88960401973" lon="14.824873913938">
        <ele>171</ele>
        <time>2020-02-25T18:22:48Z</time>
      </trkpt>
      <trkpt lat="56.889620364435" lon="14.824711472716">
        <ele>172.2</ele>
        <time>2020-02-25T18:22:51Z</time>
      </trkpt>
      <trkpt lat="56.889620029159" lon="14.824490274375">
        <ele>173.2</ele>
        <time>2020-02-25T18:22:54Z</time>
      </trkpt>
      <trkpt lat="56.88959731421" lon="14.824092385582">
        <ele>174.2</ele>
        <time>2020-02-25T18:22:59Z</time>
      </trkpt>
      <trkpt lat="56.889589854319" lon="14.82402046888">
        <ele>174.4</ele>
        <time>2020-02-25T18:23:00Z</time>
      </trkpt>
      <trkpt lat="56.88955875747" lon="14.823650156538">
        <ele>174.8</ele>
        <time>2020-02-25T18:23:05Z</time>
      </trkpt>
      <trkpt lat="56.88961156344" lon="14.823318317117">
        <ele>174</ele>
        <time>2020-02-25T18:23:10Z</time>
      </trkpt>
      <trkpt lat="56.889714074077" lon="14.823009527921">
        <ele>174.4</ele>
        <time>2020-02-25T18:23:15Z</time>
      </trkpt>
      <trkpt lat="56.889767215323" lon="14.822822863008">
        <ele>175.2</ele>
        <time>2020-02-25T18:23:18Z</time>
      </trkpt>
      <trkpt lat="56.889805017692" lon="14.822700403449">
        <ele>175.6</ele>
        <time>2020-02-25T18:23:20Z</time>
      </trkpt>
      <trkpt lat="56.889911300184" lon="14.822426315319">
        <ele>175.2</ele>
        <time>2020-02-25T18:23:25Z</time>
      </trkpt>
      <trkpt lat="56.890024204377" lon="14.822142839461">
        <ele>175</ele>
        <time>2020-02-25T18:23:30Z</time>
      </trkpt>
      <trkpt lat="56.890151525438" lon="14.821904206768">
        <ele>176</ele>
        <time>2020-02-25T18:23:35Z</time>
      </trkpt>
      <trkpt lat="56.890192680567" lon="14.82192583207">
        <ele>176</ele>
        <time>2020-02-25T18:23:36Z</time>
      </trkpt>
      <trkpt lat="56.890338525627" lon="14.822160022356">
        <ele>174.8</ele>
        <time>2020-02-25T18:23:40Z</time>
      </trkpt>
      <trkpt lat="56.890493842234" lon="14.82232983965">
        <ele>174.8</ele>
        <time>2020-02-25T18:23:44Z</time>
      </trkpt>
      <trkpt lat="56.890670951781" lon="14.822505943369">
        <ele>175.2</ele>
        <time>2020-02-25T18:23:49Z</time>
      </trkpt>
      <trkpt lat="56.890840936713" lon="14.822665031831">
        <ele>176</ele>
        <time>2020-02-25T18:23:54Z</time>
      </trkpt>
      <trkpt lat="56.891015699328" lon="14.822842895749">
        <ele>175.6</ele>
        <time>2020-02-25T18:23:59Z</time>
      </trkpt>
      <trkpt lat="56.891174703971" lon="14.823019837658">
        <ele>174.8</ele>
        <time>2020-02-25T18:24:04Z</time>
      </trkpt>
      <trkpt lat="56.891323650334" lon="14.823236174497">
        <ele>175</ele>
        <time>2020-02-25T18:24:09Z</time>
      </trkpt>
      <trkpt lat="56.891328930931" lon="14.823490900438">
        <ele>175.4</ele>
        <time>2020-02-25T18:24:13Z</time>
      </trkpt>
      <trkpt lat="56.89117897874" lon="14.823740932515">
        <ele>175.8</ele>
        <time>2020-02-25T18:24:18Z</time>
      </trkpt>
      <trkpt lat="56.89104151558" lon="14.823988533841">
        <ele>174.6</ele>
        <time>2020-02-25T18:24:23Z</time>
      </trkpt>
      <trkpt lat="56.891013939129" lon="14.824047877693">
        <ele>174.6</ele>
        <time>2020-02-25T18:24:24Z</time>
      </trkpt>
      <trkpt lat="56.89095099106" lon="14.824191292002">
        <ele>172.8</ele>
        <time>2020-02-25T18:24:28Z</time>
      </trkpt>
      <trkpt lat="56.890940262228" lon="14.824228759095">
        <ele>173</ele>
        <time>2020-02-25T18:24:33Z</time>
      </trkpt>
      <trkpt lat="56.891032463128" lon="14.824289695508">
        <ele>173.8</ele>
        <time>2020-02-25T18:27:14Z</time>
      </trkpt>
      <trkpt lat="56.891026344341" lon="14.824353062672">
        <ele>173.6</ele>
        <time>2020-02-25T18:27:17Z</time>
      </trkpt>
      <trkpt lat="56.891008239437" lon="14.824412238886">
        <ele>174.2</ele>
        <time>2020-02-25T18:27:19Z</time>
      </trkpt>
      <trkpt lat="56.890887791534" lon="14.824653553787">
        <ele>173.2</ele>
        <time>2020-02-25T18:27:27Z</time>
      </trkpt>
      <trkpt lat="56.890851162631" lon="14.82471868115">
        <ele>172.6</ele>
        <time>2020-02-25T18:27:29Z</time>
      </trkpt>
      <trkpt lat="56.890819059954" lon="14.824795207897">
        <ele>171.2</ele>
        <time>2020-02-25T18:27:31Z</time>
      </trkpt>
      <trkpt lat="56.890793495159" lon="14.824871399368">
        <ele>172.4</ele>
        <time>2020-02-25T18:27:33Z</time>
      </trkpt>
      <trkpt lat="56.890752842944" lon="14.824980866982">
        <ele>170.2</ele>
        <time>2020-02-25T18:27:35Z</time>
      </trkpt>
      <trkpt lat="56.890710095254" lon="14.825069379846">
        <ele>172.6</ele>
        <time>2020-02-25T18:27:37Z</time>
      </trkpt>
      <trkpt lat="56.890675980921" lon="14.825151606285">
        <ele>171.4</ele>
        <time>2020-02-25T18:27:39Z</time>
      </trkpt>
      <trkpt lat="56.890586629867" lon="14.825375067739">
        <ele>170.2</ele>
        <time>2020-02-25T18:27:44Z</time>
      </trkpt>
      <trkpt lat="56.890437934961" lon="14.825628871671">
        <ele>170.6</ele>
        <time>2020-02-25T18:27:52Z</time>
      </trkpt>
      <trkpt lat="56.890408179216" lon="14.825758539664">
        <ele>168.6</ele>
        <time>2020-02-25T18:27:55Z</time>
      </trkpt>
      <trkpt lat="56.890400216411" lon="14.825812938195">
        <ele>166.6</ele>
        <time>2020-02-25T18:27:56Z</time>
      </trkpt>
      <trkpt lat="56.890340704921" lon="14.826123236133">
        <ele>166.4</ele>
        <time>2020-02-25T18:28:03Z</time>
      </trkpt>
      <trkpt lat="56.890299968887" lon="14.826466894033">
        <ele>166.4</ele>
        <time>2020-02-25T18:28:10Z</time>
      </trkpt>
      <trkpt lat="56.890300807077" lon="14.826820191118">
        <ele>165.8</ele>
        <time>2020-02-25T18:28:18Z</time>
      </trkpt>
      <trkpt lat="56.890301058534" lon="14.826938962641">
        <ele>165.6</ele>
        <time>2020-02-25T18:28:21Z</time>
      </trkpt>
      <trkpt lat="56.890300639439" lon="14.827126298106">
        <ele>165.4</ele>
        <time>2020-02-25T18:28:26Z</time>
      </trkpt>
      <trkpt lat="56.890269626409" lon="14.827362500048">
        <ele>165</ele>
        <time>2020-02-25T18:28:32Z</time>
      </trkpt>
      <trkpt lat="56.890255880093" lon="14.827718227884">
        <ele>165.6</ele>
        <time>2020-02-25T18:28:41Z</time>
      </trkpt>
      <trkpt lat="56.890221011389" lon="14.828066914924">
        <ele>165.8</ele>
        <time>2020-02-25T18:28:45Z</time>
      </trkpt>
      <trkpt lat="56.890106766092" lon="14.828304960884">
        <ele>165.8</ele>
        <time>2020-02-25T18:28:51Z</time>
      </trkpt>
      <trkpt lat="56.889979780307" lon="14.828550969649">
        <ele>166.2</ele>
        <time>2020-02-25T18:28:59Z</time>
      </trkpt>
      <trkpt lat="56.889896128945" lon="14.828863698338">
        <ele>166.2</ele>
        <time>2020-02-25T18:29:07Z</time>
      </trkpt>
      <trkpt lat="56.889854051807" lon="14.829215738138">
        <ele>166.2</ele>
        <time>2020-02-25T18:29:15Z</time>
      </trkpt>
      <trkpt lat="56.889763611106" lon="14.829431907339">
        <ele>165.6</ele>
        <time>2020-02-25T18:29:20Z</time>
      </trkpt>
      <trkpt lat="56.889576694736" lon="14.829490999734">
        <ele>166</ele>
        <time>2020-02-25T18:29:29Z</time>
      </trkpt>
      <trkpt lat="56.889385084502" lon="14.829517486538">
        <ele>165.8</ele>
        <time>2020-02-25T18:29:38Z</time>
      </trkpt>
      <trkpt lat="56.889198838684" lon="14.829596527855">
        <ele>165.6</ele>
        <time>2020-02-25T18:29:45Z</time>
      </trkpt>
      <trkpt lat="56.889026171544" lon="14.82969920613">
        <ele>165.4</ele>
        <time>2020-02-25T18:29:53Z</time>
      </trkpt>
      <trkpt lat="56.888823329564" lon="14.829758549982">
        <ele>165.4</ele>
        <time>2020-02-25T18:30:00Z</time>
      </trkpt>
      <trkpt lat="56.888714532502" lon="14.829775146144">
        <ele>165.4</ele>
        <time>2020-02-25T18:30:04Z</time>
      </trkpt>
      <trkpt lat="56.888631635511" lon="14.829877992057">
        <ele>165.2</ele>
        <time>2020-02-25T18:30:08Z</time>
      </trkpt>
      <trkpt lat="56.88846994866" lon="14.830066500988">
        <ele>165.4</ele>
        <time>2020-02-25T18:30:14Z</time>
      </trkpt>
      <trkpt lat="56.88835511663" lon="14.830338828919">
        <ele>165.6</ele>
        <time>2020-02-25T18:30:21Z</time>
      </trkpt>
      <trkpt lat="56.888337849916" lon="14.830519961778">
        <ele>165.8</ele>
        <time>2020-02-25T18:30:26Z</time>
      </trkpt>
      <trkpt lat="56.888304406135" lon="14.830658430766">
        <ele>166.6</ele>
        <time>2020-02-25T18:32:02Z</time>
      </trkpt>
      <trkpt lat="56.888351847689" lon="14.830611324488">
        <ele>168.4</ele>
        <time>2020-02-25T18:32:06Z</time>
      </trkpt>
      <trkpt lat="56.88842217183" lon="14.830609648108">
        <ele>166.6</ele>
        <time>2020-02-25T18:32:08Z</time>
      </trkpt>
      <trkpt lat="56.88852191644" lon="14.830651725246">
        <ele>167.4</ele>
        <time>2020-02-25T18:32:10Z</time>
      </trkpt>
      <trkpt lat="56.888606070716" lon="14.830728168174">
        <ele>168.2</ele>
        <time>2020-02-25T18:32:12Z</time>
      </trkpt>
      <trkpt lat="56.888709587181" lon="14.830846772059">
        <ele>168.8</ele>
        <time>2020-02-25T18:32:15Z</time>
      </trkpt>
      <trkpt lat="56.888770523594" lon="14.830963783383">
        <ele>169.2</ele>
        <time>2020-02-25T18:32:18Z</time>
      </trkpt>
      <trkpt lat="56.888801620443" lon="14.831042237967">
        <ele>169.4</ele>
        <time>2020-02-25T18:32:20Z</time>
      </trkpt>
      <trkpt lat="56.888881164674" lon="14.831212558175">
        <ele>170.8</ele>
        <time>2020-02-25T18:32:25Z</time>
      </trkpt>
      <trkpt lat="56.888915279007" lon="14.83126326867">
        <ele>171.8</ele>
        <time>2020-02-25T18:32:27Z</time>
      </trkpt>
      <trkpt lat="56.889014269246" lon="14.831355553389">
        <ele>173.2</ele>
        <time>2020-02-25T18:32:30Z</time>
      </trkpt>
      <trkpt lat="56.88913379514" lon="14.831484215554">
        <ele>174.8</ele>
        <time>2020-02-25T18:32:34Z</time>
      </trkpt>
      <trkpt lat="56.889263379314" lon="14.831571890228">
        <ele>175.8</ele>
        <time>2020-02-25T18:32:37Z</time>
      </trkpt>
      <trkpt lat="56.889444847449" lon="14.831691416122">
        <ele>177</ele>
        <time>2020-02-25T18:32:43Z</time>
      </trkpt>
      <trkpt lat="56.889505029491" lon="14.831739025314">
        <ele>178</ele>
        <time>2020-02-25T18:32:45Z</time>
      </trkpt>
      <trkpt lat="56.889561607316" lon="14.83181982683">
        <ele>179.6</ele>
        <time>2020-02-25T18:32:47Z</time>
      </trkpt>
      <trkpt lat="56.889724970547" lon="14.832107661276">
        <ele>180.4</ele>
        <time>2020-02-25T18:32:52Z</time>
      </trkpt>
      <trkpt lat="56.889878024041" lon="14.832398261749">
        <ele>179.8</ele>
        <time>2020-02-25T18:32:57Z</time>
      </trkpt>
      <trkpt lat="56.889997801392" lon="14.832647287998">
        <ele>179</ele>
        <time>2020-02-25T18:33:02Z</time>
      </trkpt>
      <trkpt lat="56.890068125533" lon="14.832730268808">
        <ele>178.4</ele>
        <time>2020-02-25T18:33:05Z</time>
      </trkpt>
      <trkpt lat="56.890103916246" lon="14.832826325382">
        <ele>178.2</ele>
        <time>2020-02-25T18:33:09Z</time>
      </trkpt>
      <trkpt lat="56.890134258724" lon="14.832866642321">
        <ele>178.4</ele>
        <time>2020-02-25T18:33:12Z</time>
      </trkpt>
      <trkpt lat="56.89014968142" lon="14.832899499369">
        <ele>178.4</ele>
        <time>2020-02-25T18:33:14Z</time>
      </trkpt>
      <trkpt lat="56.890177174052" lon="14.832926405268">
        <ele>178.4</ele>
        <time>2020-02-25T18:33:16Z</time>
      </trkpt>
      <trkpt lat="56.890196452422" lon="14.83294886876">
        <ele>178.4</ele>
        <time>2020-02-25T18:33:18Z</time>
      </trkpt>
      <trkpt lat="56.890181029726" lon="14.832900337559">
        <ele>178.2</ele>
        <time>2020-02-25T18:33:24Z</time>
      </trkpt>
      <trkpt lat="56.890151609257" lon="14.83284828596">
        <ele>178.2</ele>
        <time>2020-02-25T18:33:28Z</time>
      </trkpt>
      <trkpt lat="56.890138449674" lon="14.832828420857">
        <ele>178.2</ele>
        <time>2020-02-25T18:33:30Z</time>
      </trkpt>
      <trkpt lat="56.890113890707" lon="14.832809142487">
        <ele>178.2</ele>
        <time>2020-02-25T18:33:32Z</time>
      </trkpt>
      <trkpt lat="56.890086733351" lon="14.832769915195">
        <ele>178.2</ele>
        <time>2020-02-25T18:33:35Z</time>
      </trkpt>
      <trkpt lat="56.89001389464" lon="14.832620633556">
        <ele>177.6</ele>
        <time>2020-02-25T18:33:46Z</time>
      </trkpt>
      <trkpt lat="56.890046248774" lon="14.832670254404">
        <ele>177.4</ele>
        <time>2020-02-25T18:33:52Z</time>
      </trkpt>
      <trkpt lat="56.890061503832" lon="14.832726413134">
        <ele>177.4</ele>
        <time>2020-02-25T18:33:54Z</time>
      </trkpt>
      <trkpt lat="56.890084973152" lon="14.832807466107">
        <ele>177.2</ele>
        <time>2020-02-25T18:33:57Z</time>
      </trkpt>
      <trkpt lat="56.890102407504" lon="14.83286421157">
        <ele>178.2</ele>
        <time>2020-02-25T18:33:59Z</time>
      </trkpt>
      <trkpt lat="56.890153369456" lon="14.832923806879">
        <ele>178.6</ele>
        <time>2020-02-25T18:34:03Z</time>
      </trkpt>
      <trkpt lat="56.890213300041" lon="14.832978540686">
        <ele>178.4</ele>
        <time>2020-02-25T18:34:06Z</time>
      </trkpt>
      <trkpt lat="56.890350679382" lon="14.833215999913">
        <ele>179.2</ele>
        <time>2020-02-25T18:34:11Z</time>
      </trkpt>
      <trkpt lat="56.890373059055" lon="14.833256149214">
        <ele>179.8</ele>
        <time>2020-02-25T18:34:12Z</time>
      </trkpt>
      <trkpt lat="56.890432486726" lon="14.83338053661">
        <ele>181</ele>
        <time>2020-02-25T18:34:15Z</time>
      </trkpt>
      <trkpt lat="56.890480095918" lon="14.833467205456">
        <ele>182.2</ele>
        <time>2020-02-25T18:34:17Z</time>
      </trkpt>
      <trkpt lat="56.8905201614" lon="14.833527974231">
        <ele>183.2</ele>
        <time>2020-02-25T18:34:19Z</time>
      </trkpt>
      <trkpt lat="56.890622169123" lon="14.833627635022">
        <ele>184.4</ele>
        <time>2020-02-25T18:34:23Z</time>
      </trkpt>
      <trkpt lat="56.890794333349" lon="14.833758727938">
        <ele>185.6</ele>
        <time>2020-02-25T18:34:28Z</time>
      </trkpt>
      <trkpt lat="56.890857700513" lon="14.833797703773">
        <ele>186.8</ele>
        <time>2020-02-25T18:34:30Z</time>
      </trkpt>
      <trkpt lat="56.890974544199" lon="14.83388261242">
        <ele>188.2</ele>
        <time>2020-02-25T18:34:33Z</time>
      </trkpt>
      <trkpt lat="56.891189623753" lon="14.833923767549">
        <ele>188.2</ele>
        <time>2020-02-25T18:34:37Z</time>
      </trkpt>
      <trkpt lat="56.891387268955" lon="14.833879008203">
        <ele>188</ele>
        <time>2020-02-25T18:34:41Z</time>
      </trkpt>
      <trkpt lat="56.891484666633" lon="14.833830393183">
        <ele>188.2</ele>
        <time>2020-02-25T18:34:43Z</time>
      </trkpt>
      <trkpt lat="56.891656998497" lon="14.833741964138">
        <ele>186.8</ele>
        <time>2020-02-25T18:34:47Z</time>
      </trkpt>
      <trkpt lat="56.891833269854" lon="14.833655965844">
        <ele>185.8</ele>
        <time>2020-02-25T18:34:51Z</time>
      </trkpt>
      <trkpt lat="56.89194927535" lon="14.833603914245">
        <ele>185.8</ele>
        <time>2020-02-25T18:34:54Z</time>
      </trkpt>
      <trkpt lat="56.892127558363" lon="14.833596286716">
        <ele>185.6</ele>
        <time>2020-02-25T18:34:58Z</time>
      </trkpt>
      <trkpt lat="56.892233086484" lon="14.833562507659">
        <ele>185.4</ele>
        <time>2020-02-25T18:35:00Z</time>
      </trkpt>
      <trkpt lat="56.892376249336" lon="14.83348950131">
        <ele>184.6</ele>
        <time>2020-02-25T18:35:03Z</time>
      </trkpt>
      <trkpt lat="56.892459146327" lon="14.833471144949">
        <ele>183.4</ele>
        <time>2020-02-25T18:35:05Z</time>
      </trkpt>
      <trkpt lat="56.892515472695" lon="14.833464607067">
        <ele>183</ele>
        <time>2020-02-25T18:35:07Z</time>
      </trkpt>
      <trkpt lat="56.89254690482" lon="14.833456895719">
        <ele>182.2</ele>
        <time>2020-02-25T18:35:09Z</time>
      </trkpt>
      <trkpt lat="56.89255612491" lon="14.833482125238">
        <ele>181.8</ele>
        <time>2020-02-25T18:35:12Z</time>
      </trkpt>
      <trkpt lat="56.892554364711" lon="14.833485813274">
        <ele>181.8</ele>
        <time>2020-02-25T18:35:17Z</time>
      </trkpt>
      <trkpt lat="56.892587473216" lon="14.833500481599">
        <ele>182</ele>
        <time>2020-02-25T18:35:33Z</time>
      </trkpt>
      <trkpt lat="56.892623850662" lon="14.833495536278">
        <ele>181.8</ele>
        <time>2020-02-25T18:35:37Z</time>
      </trkpt>
      <trkpt lat="56.892671627492" lon="14.833494111355">
        <ele>181.6</ele>
        <time>2020-02-25T18:35:41Z</time>
      </trkpt>
      <trkpt lat="56.89271035187" lon="14.833487573473">
        <ele>181.6</ele>
        <time>2020-02-25T18:35:45Z</time>
      </trkpt>
      <trkpt lat="56.892708507852" lon="14.833415489133">
        <ele>181.8</ele>
        <time>2020-02-25T18:35:49Z</time>
      </trkpt>
      <trkpt lat="56.89267933884" lon="14.833417500789">
        <ele>181.8</ele>
        <time>2020-02-25T18:35:52Z</time>
      </trkpt>
      <trkpt lat="56.892572637253" lon="14.833412890744">
        <ele>181.8</ele>
        <time>2020-02-25T18:36:04Z</time>
      </trkpt>
      <trkpt lat="56.892524944242" lon="14.833390427252">
        <ele>181.8</ele>
        <time>2020-02-25T18:36:06Z</time>
      </trkpt>
      <trkpt lat="56.892359904631" lon="14.833450525475">
        <ele>183.8</ele>
        <time>2020-02-25T18:36:12Z</time>
      </trkpt>
      <trkpt lat="56.892232415932" lon="14.833508444404">
        <ele>185.2</ele>
        <time>2020-02-25T18:36:16Z</time>
      </trkpt>
      <trkpt lat="56.892158571393" lon="14.833485897093">
        <ele>186.2</ele>
        <time>2020-02-25T18:36:18Z</time>
      </trkpt>
      <trkpt lat="56.891971822661" lon="14.833551946465">
        <ele>186</ele>
        <time>2020-02-25T18:36:23Z</time>
      </trkpt>
      <trkpt lat="56.891765879378" lon="14.833713465678">
        <ele>185.6</ele>
        <time>2020-02-25T18:36:29Z</time>
      </trkpt>
      <trkpt lat="56.8915930446" lon="14.833825196405">
        <ele>186.2</ele>
        <time>2020-02-25T18:36:33Z</time>
      </trkpt>
      <trkpt lat="56.891395986131" lon="14.833879930212">
        <ele>186.6</ele>
        <time>2020-02-25T18:36:38Z</time>
      </trkpt>
      <trkpt lat="56.891321806316" lon="14.833857382901">
        <ele>187.2</ele>
        <time>2020-02-25T18:36:40Z</time>
      </trkpt>
      <trkpt lat="56.891113180825" lon="14.833736515903">
        <ele>187.6</ele>
        <time>2020-02-25T18:36:45Z</time>
      </trkpt>
      <trkpt lat="56.890937663839" lon="14.833614056344">
        <ele>187</ele>
        <time>2020-02-25T18:36:49Z</time>
      </trkpt>
      <trkpt lat="56.890776982816" lon="14.833502577074">
        <ele>186</ele>
        <time>2020-02-25T18:36:53Z</time>
      </trkpt>
      <trkpt lat="56.890690816884" lon="14.833434348408">
        <ele>185.4</ele>
        <time>2020-02-25T18:36:55Z</time>
      </trkpt>
      <trkpt lat="56.890600292364" lon="14.833339884395">
        <ele>185.2</ele>
        <time>2020-02-25T18:36:57Z</time>
      </trkpt>
      <trkpt lat="56.890515216079" lon="14.833235445921">
        <ele>184.8</ele>
        <time>2020-02-25T18:36:59Z</time>
      </trkpt>
      <trkpt lat="56.890480263556" lon="14.833177778449">
        <ele>184.4</ele>
        <time>2020-02-25T18:37:00Z</time>
      </trkpt>
      <trkpt lat="56.890409017406" lon="14.83304945156">
        <ele>183.6</ele>
        <time>2020-02-25T18:37:02Z</time>
      </trkpt>
      <trkpt lat="56.890336178695" lon="14.832944761629">
        <ele>182.2</ele>
        <time>2020-02-25T18:37:04Z</time>
      </trkpt>
      <trkpt lat="56.890282618354" lon="14.832875862411">
        <ele>180.2</ele>
        <time>2020-02-25T18:37:06Z</time>
      </trkpt>
      <trkpt lat="56.890257556473" lon="14.832818530215">
        <ele>179.2</ele>
        <time>2020-02-25T18:37:08Z</time>
      </trkpt>
      <trkpt lat="56.890210198738" lon="14.832758683449">
        <ele>179</ele>
        <time>2020-02-25T18:37:13Z</time>
      </trkpt>
      <trkpt lat="56.890178682794" lon="14.832800090035">
        <ele>179</ele>
        <time>2020-02-25T18:37:15Z</time>
      </trkpt>
      <trkpt lat="56.890177174052" lon="14.832812327609">
        <ele>179</ele>
        <time>2020-02-25T18:37:18Z</time>
      </trkpt>
      <trkpt lat="56.890188405798" lon="14.832844681743">
        <ele>179</ele>
        <time>2020-02-25T18:37:21Z</time>
      </trkpt>
      <trkpt lat="56.89022344214" lon="14.832887513252">
        <ele>177.8</ele>
        <time>2020-02-25T18:37:24Z</time>
      </trkpt>
      <trkpt lat="56.890240122121" lon="14.832902852129">
        <ele>178.2</ele>
        <time>2020-02-25T18:37:26Z</time>
      </trkpt>
      <trkpt lat="56.890282618354" lon="14.832941073593">
        <ele>178.4</ele>
        <time>2020-02-25T18:37:31Z</time>
      </trkpt>
      <trkpt lat="56.890301980543" lon="14.832956663927">
        <ele>178.2</ele>
        <time>2020-02-25T18:37:33Z</time>
      </trkpt>
      <trkpt lat="56.890329808451" lon="14.832973008632">
        <ele>178.2</ele>
        <time>2020-02-25T18:37:36Z</time>
      </trkpt>
      <trkpt lat="56.890343470948" lon="14.833009302259">
        <ele>178.2</ele>
        <time>2020-02-25T18:37:39Z</time>
      </trkpt>
      <trkpt lat="56.890371131218" lon="14.833038806547">
        <ele>178.2</ele>
        <time>2020-02-25T18:37:42Z</time>
      </trkpt>
      <trkpt lat="56.890420752066" lon="14.833102592806">
        <ele>178.4</ele>
        <time>2020-02-25T18:37:49Z</time>
      </trkpt>
      <trkpt lat="56.890431229441" lon="14.833165876151">
        <ele>178.8</ele>
        <time>2020-02-25T18:37:53Z</time>
      </trkpt>
      <trkpt lat="56.890423266636" lon="14.833213485343">
        <ele>179.2</ele>
        <time>2020-02-25T18:37:55Z</time>
      </trkpt>
      <trkpt lat="56.890415220012" lon="14.833277774516">
        <ele>179.6</ele>
        <time>2020-02-25T18:37:58Z</time>
      </trkpt>
      <trkpt lat="56.890427792862" lon="14.833267548598">
        <ele>179.8</ele>
        <time>2020-02-25T18:38:02Z</time>
      </trkpt>
      <trkpt lat="56.890386302457" lon="14.833129666343">
        <ele>179.6</ele>
        <time>2020-02-25T18:38:06Z</time>
      </trkpt>
      <trkpt lat="56.890341878387" lon="14.833050708845">
        <ele>179.4</ele>
        <time>2020-02-25T18:38:07Z</time>
      </trkpt>
      <trkpt lat="56.890191171825" lon="14.832740494726">
        <ele>178.4</ele>
        <time>2020-02-25T18:38:12Z</time>
      </trkpt>
      <trkpt lat="56.890159823519" lon="14.83267310425">
        <ele>178</ele>
        <time>2020-02-25T18:38:13Z</time>
      </trkpt>
      <trkpt lat="56.890025294024" lon="14.832404464355">
        <ele>178.6</ele>
        <time>2020-02-25T18:38:18Z</time>
      </trkpt>
      <trkpt lat="56.889905181397" lon="14.832133980442">
        <ele>178.4</ele>
        <time>2020-02-25T18:38:22Z</time>
      </trkpt>
      <trkpt lat="56.889799820914" lon="14.831936167602">
        <ele>178.6</ele>
        <time>2020-02-25T18:38:25Z</time>
      </trkpt>
      <trkpt lat="56.889732598076" lon="14.831849079661">
        <ele>179</ele>
        <time>2020-02-25T18:38:27Z</time>
      </trkpt>
      <trkpt lat="56.889632434371" lon="14.831721088048">
        <ele>179.4</ele>
        <time>2020-02-25T18:38:30Z</time>
      </trkpt>
      <trkpt lat="56.889587004473" lon="14.831682279851">
        <ele>180</ele>
        <time>2020-02-25T18:38:31Z</time>
      </trkpt>
      <trkpt lat="56.889537132168" lon="14.831647578785">
        <ele>179.8</ele>
        <time>2020-02-25T18:38:32Z</time>
      </trkpt>
      <trkpt lat="56.889321046786" lon="14.831515647679">
        <ele>179</ele>
        <time>2020-02-25T18:38:36Z</time>
      </trkpt>
      <trkpt lat="56.889223816746" lon="14.83144264133">
        <ele>177.4</ele>
        <time>2020-02-25T18:38:38Z</time>
      </trkpt>
      <trkpt lat="56.889097836789" lon="14.831319678857">
        <ele>176.2</ele>
        <time>2020-02-25T18:38:41Z</time>
      </trkpt>
      <trkpt lat="56.889010413572" lon="14.831219263695">
        <ele>175</ele>
        <time>2020-02-25T18:38:43Z</time>
      </trkpt>
      <trkpt lat="56.888919721414" lon="14.831098312878">
        <ele>173.4</ele>
        <time>2020-02-25T18:38:45Z</time>
      </trkpt>
      <trkpt lat="56.888826766143" lon="14.830993790585">
        <ele>172</ele>
        <time>2020-02-25T18:38:47Z</time>
      </trkpt>
      <trkpt lat="56.888784186091" lon="14.830951545809">
        <ele>171.4</ele>
        <time>2020-02-25T18:38:48Z</time>
      </trkpt>
      <trkpt lat="56.888743785333" lon="14.830881808401">
        <ele>170.8</ele>
        <time>2020-02-25T18:38:49Z</time>
      </trkpt>
      <trkpt lat="56.888705060955" lon="14.830833863933">
        <ele>170.6</ele>
        <time>2020-02-25T18:38:50Z</time>
      </trkpt>
      <trkpt lat="56.888628198932" lon="14.830725485966">
        <ele>170.4</ele>
        <time>2020-02-25T18:38:52Z</time>
      </trkpt>
      <trkpt lat="56.88854873852" lon="14.830677960593">
        <ele>169.6</ele>
        <time>2020-02-25T18:38:54Z</time>
      </trkpt>
      <trkpt lat="56.888448574815" lon="14.830684749932">
        <ele>168.2</ele>
        <time>2020-02-25T18:38:57Z</time>
      </trkpt>
      <trkpt lat="56.888396355578" lon="14.830759348842">
        <ele>167.6</ele>
        <time>2020-02-25T18:38:59Z</time>
      </trkpt>
      <trkpt lat="56.888240200781" lon="14.830952803094">
        <ele>167.2</ele>
        <time>2020-02-25T18:39:04Z</time>
      </trkpt>
      <trkpt lat="56.888142300189" lon="14.831067802762">
        <ele>166.8</ele>
        <time>2020-02-25T18:39:10Z</time>
      </trkpt>
      <trkpt lat="56.888068874745" lon="14.83113921655">
        <ele>166.6</ele>
        <time>2020-02-25T18:39:14Z</time>
      </trkpt>
      <trkpt lat="56.888051943307" lon="14.831146927898">
        <ele>166.4</ele>
        <time>2020-02-25T18:39:17Z</time>
      </trkpt>
      <trkpt lat="56.888064516157" lon="14.831082303449">
        <ele>166.6</ele>
        <time>2020-02-25T18:39:24Z</time>
      </trkpt>
      <trkpt lat="56.888084297441" lon="14.830997143345">
        <ele>166.6</ele>
        <time>2020-02-25T18:39:29Z</time>
      </trkpt>
      <trkpt lat="56.888094774816" lon="14.830955233845">
        <ele>166.6</ele>
        <time>2020-02-25T18:39:32Z</time>
      </trkpt>
      <trkpt lat="56.888108940227" lon="14.830914078716">
        <ele>166.6</ele>
        <time>2020-02-25T18:39:34Z</time>
      </trkpt>
      <trkpt lat="56.888121010163" lon="14.830839898901">
        <ele>166.8</ele>
        <time>2020-02-25T18:39:37Z</time>
      </trkpt>
      <trkpt lat="56.888130146434" lon="14.830808382957">
        <ele>166.8</ele>
        <time>2020-02-25T18:39:39Z</time>
      </trkpt>
      <trkpt lat="56.888140288533" lon="14.830794636641">
        <ele>166.8</ele>
        <time>2020-02-25T18:39:41Z</time>
      </trkpt>
      <trkpt lat="56.888162416749" lon="14.830741243938">
        <ele>167.2</ele>
        <time>2020-02-25T18:39:47Z</time>
      </trkpt>
      <trkpt lat="56.888207092276" lon="14.830973422568">
        <ele>166.6</ele>
        <time>2020-02-25T18:40:09Z</time>
      </trkpt>
      <trkpt lat="56.888195357616" lon="14.83112748189">
        <ele>167</ele>
        <time>2020-02-25T18:40:11Z</time>
      </trkpt>
      <trkpt lat="56.888194687064" lon="14.83132278016">
        <ele>168.2</ele>
        <time>2020-02-25T18:40:14Z</time>
      </trkpt>
      <trkpt lat="56.888200973489" lon="14.831425458435">
        <ele>169.2</ele>
        <time>2020-02-25T18:40:16Z</time>
      </trkpt>
      <trkpt lat="56.888200638213" lon="14.831479940785">
        <ele>169.6</ele>
        <time>2020-02-25T18:40:17Z</time>
      </trkpt>
      <trkpt lat="56.888208936294" lon="14.831588821666">
        <ele>171</ele>
        <time>2020-02-25T18:40:19Z</time>
      </trkpt>
      <trkpt lat="56.888222095877" lon="14.831689236828">
        <ele>172.2</ele>
        <time>2020-02-25T18:40:21Z</time>
      </trkpt>
      <trkpt lat="56.888214468348" lon="14.832005485915">
        <ele>173.4</ele>
        <time>2020-02-25T18:40:25Z</time>
      </trkpt>
      <trkpt lat="56.888247912129" lon="14.832329781626">
        <ele>174.6</ele>
        <time>2020-02-25T18:40:30Z</time>
      </trkpt>
      <trkpt lat="56.888266017033" lon="14.83271585194">
        <ele>175.2</ele>
        <time>2020-02-25T18:40:36Z</time>
      </trkpt>
      <trkpt lat="56.888297365339" lon="14.833087673024">
        <ele>175.8</ele>
        <time>2020-02-25T18:40:41Z</time>
      </trkpt>
      <trkpt lat="56.888311698388" lon="14.833416494961">
        <ele>176.6</ele>
        <time>2020-02-25T18:40:46Z</time>
      </trkpt>
      <trkpt lat="56.888304154678" lon="14.833704832321">
        <ele>177</ele>
        <time>2020-02-25T18:40:49Z</time>
      </trkpt>
      <trkpt lat="56.888319409736" lon="14.833935502209">
        <ele>178.4</ele>
        <time>2020-02-25T18:40:52Z</time>
      </trkpt>
      <trkpt lat="56.88831069256" lon="14.834333810097">
        <ele>179.4</ele>
        <time>2020-02-25T18:40:57Z</time>
      </trkpt>
      <trkpt lat="56.888271716725" lon="14.834615777213">
        <ele>179.4</ele>
        <time>2020-02-25T18:41:02Z</time>
      </trkpt>
      <trkpt lat="56.888225700094" lon="14.835087678183">
        <ele>180.6</ele>
        <time>2020-02-25T18:41:11Z</time>
      </trkpt>
      <trkpt lat="56.888228969035" lon="14.835134784461">
        <ele>181.2</ele>
        <time>2020-02-25T18:41:14Z</time>
      </trkpt>
      <trkpt lat="56.888244727007" lon="14.835172251554">
        <ele>181.4</ele>
        <time>2020-02-25T18:41:17Z</time>
      </trkpt>
      <trkpt lat="56.888233327623" lon="14.835203348403">
        <ele>181.6</ele>
        <time>2020-02-25T18:41:20Z</time>
      </trkpt>
      <trkpt lat="56.888218743117" lon="14.835226901542">
        <ele>181.6</ele>
        <time>2020-02-25T18:41:21Z</time>
      </trkpt>
      <trkpt lat="56.888198542738" lon="14.835218184366">
        <ele>181.6</ele>
        <time>2020-02-25T18:41:24Z</time>
      </trkpt>
      <trkpt lat="56.888177001255" lon="14.835179459988">
        <ele>181.4</ele>
        <time>2020-02-25T18:41:28Z</time>
      </trkpt>
      <trkpt lat="56.888180354015" lon="14.835052222746">
        <ele>181.2</ele>
        <time>2020-02-25T18:41:37Z</time>
      </trkpt>
      <trkpt lat="56.888187310992" lon="14.834998159491">
        <ele>181.2</ele>
        <time>2020-02-25T18:41:40Z</time>
      </trkpt>
      <trkpt lat="56.88818580225" lon="14.834959099837">
        <ele>181</ele>
        <time>2020-02-25T18:41:42Z</time>
      </trkpt>
      <trkpt lat="56.888197201634" lon="14.834881399624">
        <ele>181</ele>
        <time>2020-02-25T18:41:47Z</time>
      </trkpt>
      <trkpt lat="56.888226957379" lon="14.834888859515">
        <ele>180.8</ele>
        <time>2020-02-25T18:41:51Z</time>
      </trkpt>
      <trkpt lat="56.888234920184" lon="14.834911406826">
        <ele>180.8</ele>
        <time>2020-02-25T18:41:53Z</time>
      </trkpt>
      <trkpt lat="56.888240368419" lon="14.834982233881">
        <ele>180.8</ele>
        <time>2020-02-25T18:41:57Z</time>
      </trkpt>
      <trkpt lat="56.888206589362" lon="14.835103687612">
        <ele>181</ele>
        <time>2020-02-25T18:42:03Z</time>
      </trkpt>
      <trkpt lat="56.888199716204" lon="14.835146435302">
        <ele>181</ele>
        <time>2020-02-25T18:42:05Z</time>
      </trkpt>
      <trkpt lat="56.888198039824" lon="14.835248107749">
        <ele>181</ele>
        <time>2020-02-25T18:42:08Z</time>
      </trkpt>
      <trkpt lat="56.88821932985" lon="14.83558749088">
        <ele>181.4</ele>
        <time>2020-02-25T18:42:13Z</time>
      </trkpt>
      <trkpt lat="56.888208181923" lon="14.835745405876">
        <ele>181.2</ele>
        <time>2020-02-25T18:42:15Z</time>
      </trkpt>
      <trkpt lat="56.888185047879" lon="14.835974147927">
        <ele>180.8</ele>
        <time>2020-02-25T18:42:18Z</time>
      </trkpt>
      <trkpt lat="56.888120255792" lon="14.836212529163">
        <ele>180</ele>
        <time>2020-02-25T18:42:21Z</time>
      </trkpt>
      <trkpt lat="56.888069629116" lon="14.836464991991">
        <ele>180.2</ele>
        <time>2020-02-25T18:42:24Z</time>
      </trkpt>
      <trkpt lat="56.887984552831" lon="14.836802531104">
        <ele>181</ele>
        <time>2020-02-25T18:42:28Z</time>
      </trkpt>
      <trkpt lat="56.887923784056" lon="14.837187344133">
        <ele>181.4</ele>
        <time>2020-02-25T18:42:33Z</time>
      </trkpt>
      <trkpt lat="56.887861255082" lon="14.837573582085">
        <ele>181.4</ele>
        <time>2020-02-25T18:42:37Z</time>
      </trkpt>
      <trkpt lat="56.887855890666" lon="14.837660670026">
        <ele>181.4</ele>
        <time>2020-02-25T18:42:38Z</time>
      </trkpt>
      <trkpt lat="56.887853711372" lon="14.837945989902">
        <ele>181</ele>
        <time>2020-02-25T18:42:42Z</time>
      </trkpt>
      <trkpt lat="56.887830325871" lon="14.83806937147">
        <ele>180.8</ele>
        <time>2020-02-25T18:42:44Z</time>
      </trkpt>
      <trkpt lat="56.887797049728" lon="14.838392745172">
        <ele>180.4</ele>
        <time>2020-02-25T18:42:49Z</time>
      </trkpt>
      <trkpt lat="56.887804090524" lon="14.838719639272">
        <ele>181.8</ele>
        <time>2020-02-25T18:42:55Z</time>
      </trkpt>
      <trkpt lat="56.887789673656" lon="14.839101350998">
        <ele>181.4</ele>
        <time>2020-02-25T18:43:01Z</time>
      </trkpt>
      <trkpt lat="56.887810628406" lon="14.839462862345">
        <ele>181.8</ele>
        <time>2020-02-25T18:43:05Z</time>
      </trkpt>
      <trkpt lat="56.887887658067" lon="14.839787493332">
        <ele>182.2</ele>
        <time>2020-02-25T18:43:16Z</time>
      </trkpt>
      <trkpt lat="56.887903080763" lon="14.839860834957">
        <ele>182</ele>
        <time>2020-02-25T18:43:19Z</time>
      </trkpt>
      <trkpt lat="56.887933423241" lon="14.839986312">
        <ele>182.2</ele>
        <time>2020-02-25T18:43:25Z</time>
      </trkpt>
      <trkpt lat="56.887948510661" lon="14.840030568432">
        <ele>182.4</ele>
        <time>2020-02-25T18:43:27Z</time>
      </trkpt>
      <trkpt lat="56.88796284371" lon="14.840068035525">
        <ele>182.4</ele>
        <time>2020-02-25T18:43:29Z</time>
      </trkpt>
      <trkpt lat="56.888009279436" lon="14.840307674046">
        <ele>183.2</ele>
        <time>2020-02-25T18:43:41Z</time>
      </trkpt>
      <trkpt lat="56.888040963018" lon="14.840382440594">
        <ele>183.4</ele>
        <time>2020-02-25T18:43:45Z</time>
      </trkpt>
      <trkpt lat="56.88804247176" lon="14.84042300899">
        <ele>183.4</ele>
        <time>2020-02-25T18:43:47Z</time>
      </trkpt>
      <trkpt lat="56.888048171452" lon="14.840454944029">
        <ele>183.6</ele>
        <time>2020-02-25T18:43:49Z</time>
      </trkpt>
      <trkpt lat="56.88806761746" lon="14.840509174922">
        <ele>183.8</ele>
        <time>2020-02-25T18:43:52Z</time>
      </trkpt>
      <trkpt lat="56.888098127576" lon="14.84056298672">
        <ele>183.8</ele>
        <time>2020-02-25T18:43:56Z</time>
      </trkpt>
      <trkpt lat="56.888105755105" lon="14.840602968383">
        <ele>183.8</ele>
        <time>2020-02-25T18:43:58Z</time>
      </trkpt>
      <trkpt lat="56.888037945534" lon="14.840441030075">
        <ele>183.8</ele>
        <time>2020-02-25T18:44:08Z</time>
      </trkpt>
      <trkpt lat="56.887963598081" lon="14.840089074094">
        <ele>183.8</ele>
        <time>2020-02-25T18:44:12Z</time>
      </trkpt>
      <trkpt lat="56.887910121559" lon="14.839896290394">
        <ele>182.4</ele>
        <time>2020-02-25T18:44:14Z</time>
      </trkpt>
      <trkpt lat="56.887854046648" lon="14.839711553318">
        <ele>179.4</ele>
        <time>2020-02-25T18:44:16Z</time>
      </trkpt>
      <trkpt lat="56.88773904698" lon="14.839416510438">
        <ele>180</ele>
        <time>2020-02-25T18:44:20Z</time>
      </trkpt>
      <trkpt lat="56.887712476357" lon="14.839350544885">
        <ele>180</ele>
        <time>2020-02-25T18:44:21Z</time>
      </trkpt>
      <trkpt lat="56.887686660105" lon="14.839217775589">
        <ele>180.2</ele>
        <time>2020-02-25T18:44:23Z</time>
      </trkpt>
      <trkpt lat="56.887719181877" lon="14.838860958106">
        <ele>180.2</ele>
        <time>2020-02-25T18:44:28Z</time>
      </trkpt>
      <trkpt lat="56.887729994528" lon="14.838637831928">
        <ele>180.2</ele>
        <time>2020-02-25T18:44:31Z</time>
      </trkpt>
      <trkpt lat="56.887733095831" lon="14.838503972985">
        <ele>179.6</ele>
        <time>2020-02-25T18:44:33Z</time>
      </trkpt>
      <trkpt lat="56.887774418598" lon="14.838159560714">
        <ele>179.6</ele>
        <time>2020-02-25T18:44:37Z</time>
      </trkpt>
      <trkpt lat="56.88778011829" lon="14.838080435578">
        <ele>179.4</ele>
        <time>2020-02-25T18:44:38Z</time>
      </trkpt>
      <trkpt lat="56.887797301185" lon="14.837930483387">
        <ele>179</ele>
        <time>2020-02-25T18:44:40Z</time>
      </trkpt>
      <trkpt lat="56.887808197655" lon="14.837767874527">
        <ele>179.4</ele>
        <time>2020-02-25T18:44:42Z</time>
      </trkpt>
      <trkpt lat="56.887820267591" lon="14.837596548491">
        <ele>179.2</ele>
        <time>2020-02-25T18:44:44Z</time>
      </trkpt>
      <trkpt lat="56.88784130616" lon="14.837270660219">
        <ele>179.2</ele>
        <time>2020-02-25T18:44:48Z</time>
      </trkpt>
      <trkpt lat="56.887859578702" lon="14.837123809331">
        <ele>178.6</ele>
        <time>2020-02-25T18:44:50Z</time>
      </trkpt>
      <trkpt lat="56.887892854845" lon="14.836974527692">
        <ele>178.2</ele>
        <time>2020-02-25T18:44:52Z</time>
      </trkpt>
      <trkpt lat="56.887943649159" lon="14.836830442831">
        <ele>178</ele>
        <time>2020-02-25T18:44:54Z</time>
      </trkpt>
      <trkpt lat="56.888051105117" lon="14.836490556786">
        <ele>177.6</ele>
        <time>2020-02-25T18:44:59Z</time>
      </trkpt>
      <trkpt lat="56.888107934399" lon="14.83620356053">
        <ele>177.2</ele>
        <time>2020-02-25T18:45:03Z</time>
      </trkpt>
      <trkpt lat="56.888114807557" lon="14.836126530869">
        <ele>177.2</ele>
        <time>2020-02-25T18:45:04Z</time>
      </trkpt>
      <trkpt lat="56.888118663231" lon="14.835967610045">
        <ele>178.2</ele>
        <time>2020-02-25T18:45:07Z</time>
      </trkpt>
      <trkpt lat="56.888116148661" lon="14.835934752997">
        <ele>178.4</ele>
        <time>2020-02-25T18:45:08Z</time>
      </trkpt>
      <trkpt lat="56.888122183629" lon="14.835811874343">
        <ele>178.6</ele>
        <time>2020-02-25T18:45:12Z</time>
      </trkpt>
      <trkpt lat="56.888130565529" lon="14.835808270126">
        <ele>178.6</ele>
        <time>2020-02-25T18:45:16Z</time>
      </trkpt>
      <trkpt lat="56.888183371499" lon="14.83588588652">
        <ele>178.4</ele>
        <time>2020-02-25T18:45:24Z</time>
      </trkpt>
      <trkpt lat="56.888189238829" lon="14.835985212035">
        <ele>178.4</ele>
        <time>2020-02-25T18:45:29Z</time>
      </trkpt>
      <trkpt lat="56.888188819734" lon="14.836034329969">
        <ele>178.4</ele>
        <time>2020-02-25T18:45:32Z</time>
      </trkpt>
      <trkpt lat="56.888191501942" lon="14.836093087088">
        <ele>178.2</ele>
        <time>2020-02-25T18:45:34Z</time>
      </trkpt>
      <trkpt lat="56.888181946576" lon="14.83613985809">
        <ele>178.2</ele>
        <time>2020-02-25T18:45:36Z</time>
      </trkpt>
      <trkpt lat="56.888172558848" lon="14.836175229708">
        <ele>178.2</ele>
        <time>2020-02-25T18:45:38Z</time>
      </trkpt>
      <trkpt lat="56.888159650722" lon="14.836215211371">
        <ele>178</ele>
        <time>2020-02-25T18:45:40Z</time>
      </trkpt>
      <trkpt lat="56.888144395664" lon="14.836288636815">
        <ele>178</ele>
        <time>2020-02-25T18:45:44Z</time>
      </trkpt>
      <trkpt lat="56.888132744823" lon="14.836328031745">
        <ele>177.8</ele>
        <time>2020-02-25T18:45:46Z</time>
      </trkpt>
      <trkpt lat="56.888118244136" lon="14.836374048376">
        <ele>177.8</ele>
        <time>2020-02-25T18:45:48Z</time>
      </trkpt>
      <trkpt lat="56.8881061742" lon="14.836419562093">
        <ele>177.6</ele>
        <time>2020-02-25T18:45:51Z</time>
      </trkpt>
      <trkpt lat="56.888082453423" lon="14.836493658089">
        <ele>177.6</ele>
        <time>2020-02-25T18:45:55Z</time>
      </trkpt>
      <trkpt lat="56.888074071523" lon="14.836522240368">
        <ele>177.6</ele>
        <time>2020-02-25T18:45:57Z</time>
      </trkpt>
      <trkpt lat="56.888053871144" lon="14.836514193744">
        <ele>177.6</ele>
        <time>2020-02-25T18:46:01Z</time>
      </trkpt>
      <trkpt lat="56.888078430111" lon="14.836385196303">
        <ele>177.4</ele>
        <time>2020-02-25T18:46:06Z</time>
      </trkpt>
      <trkpt lat="56.888094104264" lon="14.836329959582">
        <ele>177.4</ele>
        <time>2020-02-25T18:46:07Z</time>
      </trkpt>
      <trkpt lat="56.888140875266" lon="14.836112365458">
        <ele>177.2</ele>
        <time>2020-02-25T18:46:10Z</time>
      </trkpt>
      <trkpt lat="56.888166440061" lon="14.835948834589">
        <ele>177.8</ele>
        <time>2020-02-25T18:46:12Z</time>
      </trkpt>
      <trkpt lat="56.888170882468" lon="14.835869877091">
        <ele>178.4</ele>
        <time>2020-02-25T18:46:13Z</time>
      </trkpt>
      <trkpt lat="56.8881648475" lon="14.835791087231">
        <ele>178.6</ele>
        <time>2020-02-25T18:46:14Z</time>
      </trkpt>
      <trkpt lat="56.888159483084" lon="14.835565195026">
        <ele>178.8</ele>
        <time>2020-02-25T18:46:17Z</time>
      </trkpt>
      <trkpt lat="56.888181443662" lon="14.835237378917">
        <ele>178.6</ele>
        <time>2020-02-25T18:46:21Z</time>
      </trkpt>
      <trkpt lat="56.888222012058" lon="14.834901432365">
        <ele>178.8</ele>
        <time>2020-02-25T18:46:25Z</time>
      </trkpt>
      <trkpt lat="56.888236261288" lon="14.834513853309">
        <ele>178</ele>
        <time>2020-02-25T18:46:29Z</time>
      </trkpt>
      <trkpt lat="56.888232992347" lon="14.834303719076">
        <ele>177.2</ele>
        <time>2020-02-25T18:46:31Z</time>
      </trkpt>
      <trkpt lat="56.88821932985" lon="14.833999288468">
        <ele>176.6</ele>
        <time>2020-02-25T18:46:35Z</time>
      </trkpt>
      <trkpt lat="56.888192591589" lon="14.833588072454">
        <ele>176.8</ele>
        <time>2020-02-25T18:46:40Z</time>
      </trkpt>
      <trkpt lat="56.888173899952" lon="14.833378189678">
        <ele>176</ele>
        <time>2020-02-25T18:46:42Z</time>
      </trkpt>
      <trkpt lat="56.888151268822" lon="14.833000501264">
        <ele>174.6</ele>
        <time>2020-02-25T18:46:46Z</time>
      </trkpt>
      <trkpt lat="56.888129559701" lon="14.83269070624">
        <ele>174.8</ele>
        <time>2020-02-25T18:46:49Z</time>
      </trkpt>
      <trkpt lat="56.88806845565" lon="14.832411253694">
        <ele>174.2</ele>
        <time>2020-02-25T18:46:52Z</time>
      </trkpt>
      <trkpt lat="56.888073233333" lon="14.83216180835">
        <ele>173.4</ele>
        <time>2020-02-25T18:46:55Z</time>
      </trkpt>
      <trkpt lat="56.88806594108" lon="14.831988470658">
        <ele>173.2</ele>
        <time>2020-02-25T18:46:57Z</time>
      </trkpt>
      <trkpt lat="56.888073987704" lon="14.831821922305">
        <ele>172.2</ele>
        <time>2020-02-25T18:46:59Z</time>
      </trkpt>
      <trkpt lat="56.888097373205" lon="14.831685297335">
        <ele>171.6</ele>
        <time>2020-02-25T18:47:01Z</time>
      </trkpt>
      <trkpt lat="56.888118244136" lon="14.831555210247">
        <ele>171</ele>
        <time>2020-02-25T18:47:03Z</time>
      </trkpt>
      <trkpt lat="56.888126374579" lon="14.831294700795">
        <ele>169.6</ele>
        <time>2020-02-25T18:47:06Z</time>
      </trkpt>
      <trkpt lat="56.888141964913" lon="14.831195207642">
        <ele>168.6</ele>
        <time>2020-02-25T18:47:08Z</time>
      </trkpt>
      <trkpt lat="56.888144982397" lon="14.831158662558">
        <ele>168</ele>
        <time>2020-02-25T18:47:09Z</time>
      </trkpt>
      <trkpt lat="56.88814976008" lon="14.831093451376">
        <ele>166.8</ele>
        <time>2020-02-25T18:47:11Z</time>
      </trkpt>
      <trkpt lat="56.888151771736" lon="14.830868397361">
        <ele>165.8</ele>
        <time>2020-02-25T18:47:18Z</time>
      </trkpt>
      <trkpt lat="56.8881564656" lon="14.830849286629">
        <ele>165.8</ele>
        <time>2020-02-25T18:47:19Z</time>
      </trkpt>
      <trkpt lat="56.888183706775" lon="14.830720540645">
        <ele>165.4</ele>
        <time>2020-02-25T18:47:24Z</time>
      </trkpt>
      <trkpt lat="56.888192675408" lon="14.830537144673">
        <ele>165.6</ele>
        <time>2020-02-25T18:47:32Z</time>
      </trkpt>
      <trkpt lat="56.888216647642" lon="14.830405548843">
        <ele>165.2</ele>
        <time>2020-02-25T18:47:40Z</time>
      </trkpt>
      <trkpt lat="56.888225113361" lon="14.830351485588">
        <ele>165.2</ele>
        <time>2020-02-25T18:47:43Z</time>
      </trkpt>
      <trkpt lat="56.888249756147" lon="14.830209077107">
        <ele>165</ele>
        <time>2020-02-25T18:47:49Z</time>
      </trkpt>
      <trkpt lat="56.888281942643" lon="14.830107320841">
        <ele>165</ele>
        <time>2020-02-25T18:47:53Z</time>
      </trkpt>
      <trkpt lat="56.888312285121" lon="14.830002379453">
        <ele>164.8</ele>
        <time>2020-02-25T18:47:56Z</time>
      </trkpt>
      <trkpt lat="56.888327372541" lon="14.829975892649">
        <ele>164.6</ele>
        <time>2020-02-25T18:47:57Z</time>
      </trkpt>
      <trkpt lat="56.888502973346" lon="14.829895510228">
        <ele>164.8</ele>
        <time>2020-02-25T18:48:04Z</time>
      </trkpt>
      <trkpt lat="56.888697433426" lon="14.829887966518">
        <ele>164.2</ele>
        <time>2020-02-25T18:48:10Z</time>
      </trkpt>
      <trkpt lat="56.888883092511" lon="14.829828874123">
        <ele>164.8</ele>
        <time>2020-02-25T18:48:16Z</time>
      </trkpt>
      <trkpt lat="56.889066656121" lon="14.829778079809">
        <ele>164.6</ele>
        <time>2020-02-25T18:48:22Z</time>
      </trkpt>
      <trkpt lat="56.889249046265" lon="14.829742121458">
        <ele>165.6</ele>
        <time>2020-02-25T18:48:29Z</time>
      </trkpt>
      <trkpt lat="56.889405787795" lon="14.829672551688">
        <ele>166</ele>
        <time>2020-02-25T18:48:34Z</time>
      </trkpt>
      <trkpt lat="56.889594464364" lon="14.829599796796">
        <ele>166.2</ele>
        <time>2020-02-25T18:48:40Z</time>
      </trkpt>
      <trkpt lat="56.889666464885" lon="14.82951648071">
        <ele>166.6</ele>
        <time>2020-02-25T18:48:45Z</time>
      </trkpt>
      <trkpt lat="56.889710805136" lon="14.82945110189">
        <ele>166.6</ele>
        <time>2020-02-25T18:48:48Z</time>
      </trkpt>
      <trkpt lat="56.890157979501" lon="14.828093150271">
        <ele>165.6</ele>
        <time>2020-02-25T18:54:30Z</time>
      </trkpt>
      <trkpt lat="56.890170468532" lon="14.828038165007">
        <ele>165.2</ele>
        <time>2020-02-25T18:54:33Z</time>
      </trkpt>
      <trkpt lat="56.890170803808" lon="14.82802366432">
        <ele>165.4</ele>
        <time>2020-02-25T18:54:37Z</time>
      </trkpt>
      <trkpt lat="56.890126715014" lon="14.827446402867">
        <ele>165.6</ele>
        <time>2020-02-25T18:54:49Z</time>
      </trkpt>
      <trkpt lat="56.890129397222" lon="14.82730282092">
        <ele>165.8</ele>
        <time>2020-02-25T18:54:51Z</time>
      </trkpt>
      <trkpt lat="56.890153620913" lon="14.827103080243">
        <ele>165.4</ele>
        <time>2020-02-25T18:54:54Z</time>
      </trkpt>
      <trkpt lat="56.890169295066" lon="14.826957905735">
        <ele>164.8</ele>
        <time>2020-02-25T18:54:56Z</time>
      </trkpt>
      <trkpt lat="56.890179604803" lon="14.826755650488">
        <ele>164.8</ele>
        <time>2020-02-25T18:54:59Z</time>
      </trkpt>
      <trkpt lat="56.890177425509" lon="14.826546186807">
        <ele>165.6</ele>
        <time>2020-02-25T18:55:02Z</time>
      </trkpt>
      <trkpt lat="56.890171139084" lon="14.826487429688">
        <ele>165.8</ele>
        <time>2020-02-25T18:55:03Z</time>
      </trkpt>
      <trkpt lat="56.890070304827" lon="14.826366814147">
        <ele>166.8</ele>
        <time>2020-02-25T18:55:08Z</time>
      </trkpt>
      <trkpt lat="56.88988648976" lon="14.82618048451">
        <ele>165.8</ele>
        <time>2020-02-25T18:55:13Z</time>
      </trkpt>
      <trkpt lat="56.889702758512" lon="14.826017205098">
        <ele>166.4</ele>
        <time>2020-02-25T18:55:18Z</time>
      </trkpt>
      <trkpt lat="56.889638134063" lon="14.825960711092">
        <ele>166.8</ele>
        <time>2020-02-25T18:55:20Z</time>
      </trkpt>
      <trkpt lat="56.889458509946" lon="14.825797012585">
        <ele>166</ele>
        <time>2020-02-25T18:55:26Z</time>
      </trkpt>
      <trkpt lat="56.889427496916" lon="14.825755186904">
        <ele>165.8</ele>
        <time>2020-02-25T18:55:27Z</time>
      </trkpt>
      <trkpt lat="56.889331440342" lon="14.82553340183">
        <ele>165.2</ele>
        <time>2020-02-25T18:55:31Z</time>
      </trkpt>
      <trkpt lat="56.88936597377" lon="14.825433573401">
        <ele>165.6</ele>
        <time>2020-02-25T18:55:33Z</time>
      </trkpt>
      <trkpt lat="56.889419785568" lon="14.825346736917">
        <ele>166.8</ele>
        <time>2020-02-25T18:55:35Z</time>
      </trkpt>
      <trkpt lat="56.889559847117" lon="14.825086814198">
        <ele>167.4</ele>
        <time>2020-02-25T18:55:41Z</time>
      </trkpt>
      <trkpt lat="56.889583651713" lon="14.824997546963">
        <ele>167.2</ele>
        <time>2020-02-25T18:55:43Z</time>
      </trkpt>
      <trkpt lat="56.889615502933" lon="14.824816162647">
        <ele>168</ele>
        <time>2020-02-25T18:55:47Z</time>
      </trkpt>
      <trkpt lat="56.889622543729" lon="14.824718513512">
        <ele>169</ele>
        <time>2020-02-25T18:55:49Z</time>
      </trkpt>
      <trkpt lat="56.889624890661" lon="14.824591611546">
        <ele>170</ele>
        <time>2020-02-25T18:55:51Z</time>
      </trkpt>
      <trkpt lat="56.88960904887" lon="14.824245187619">
        <ele>171.2</ele>
        <time>2020-02-25T18:55:55Z</time>
      </trkpt>
      <trkpt lat="56.889581640057" lon="14.823857608563">
        <ele>170.6</ele>
        <time>2020-02-25T18:56:00Z</time>
      </trkpt>
      <trkpt lat="56.889559679479" lon="14.82349827651">
        <ele>170.4</ele>
        <time>2020-02-25T18:56:05Z</time>
      </trkpt>
      <trkpt lat="56.889640313357" lon="14.823203820363">
        <ele>170.8</ele>
        <time>2020-02-25T18:56:10Z</time>
      </trkpt>
      <trkpt lat="56.889747601677" lon="14.822887068362">
        <ele>171.4</ele>
        <time>2020-02-25T18:56:16Z</time>
      </trkpt>
      <trkpt lat="56.889860757327" lon="14.82255950371">
        <ele>171.2</ele>
        <time>2020-02-25T18:56:22Z</time>
      </trkpt>
      <trkpt lat="56.889986569646" lon="14.822247277935">
        <ele>171.6</ele>
        <time>2020-02-25T18:56:28Z</time>
      </trkpt>
      <trkpt lat="56.890100479667" lon="14.821924071871">
        <ele>171.8</ele>
        <time>2020-02-25T18:56:34Z</time>
      </trkpt>
      <trkpt lat="56.890132833801" lon="14.821924574785">
        <ele>171.8</ele>
        <time>2020-02-25T18:56:35Z</time>
      </trkpt>
      <trkpt lat="56.890198799354" lon="14.821959862584">
        <ele>171.8</ele>
        <time>2020-02-25T18:56:37Z</time>
      </trkpt>
      <trkpt lat="56.890358893644" lon="14.822156501958">
        <ele>170.8</ele>
        <time>2020-02-25T18:56:42Z</time>
      </trkpt>
      <trkpt lat="56.890548408403" lon="14.822347693097">
        <ele>172</ele>
        <time>2020-02-25T18:56:48Z</time>
      </trkpt>
      <trkpt lat="56.890736665877" lon="14.822512900346">
        <ele>171.2</ele>
        <time>2020-02-25T18:56:54Z</time>
      </trkpt>
      <trkpt lat="56.890894916149" lon="14.822677856138">
        <ele>171.8</ele>
        <time>2020-02-25T18:56:59Z</time>
      </trkpt>
      <trkpt lat="56.891065320176" lon="14.822905005628">
        <ele>171.4</ele>
        <time>2020-02-25T18:57:05Z</time>
      </trkpt>
      <trkpt lat="56.891216278195" lon="14.823095358577">
        <ele>171.4</ele>
        <time>2020-02-25T18:57:10Z</time>
      </trkpt>
      <trkpt lat="56.891301857394" lon="14.823391323466">
        <ele>171.2</ele>
        <time>2020-02-25T18:57:16Z</time>
      </trkpt>
      <trkpt lat="56.891164142777" lon="14.823652000556">
        <ele>170.6</ele>
        <time>2020-02-25T18:57:23Z</time>
      </trkpt>
      <trkpt lat="56.891036821716" lon="14.823916030406">
        <ele>171.2</ele>
        <time>2020-02-25T18:57:28Z</time>
      </trkpt>
      <trkpt lat="56.890960043512" lon="14.824239907022">
        <ele>170.2</ele>
        <time>2020-02-25T18:57:33Z</time>
      </trkpt>
      <trkpt lat="56.890954846734" lon="14.82430712986">
        <ele>170</ele>
        <time>2020-02-25T18:57:34Z</time>
      </trkpt>
      <trkpt lat="56.890845043844" lon="14.824603765301">
        <ele>169.8</ele>
        <time>2020-02-25T18:57:41Z</time>
      </trkpt>
      <trkpt lat="56.890733983669" lon="14.824950608323">
        <ele>169.2</ele>
        <time>2020-02-25T18:57:46Z</time>
      </trkpt>
      <trkpt lat="56.890658798026" lon="14.825127634051">
        <ele>168.8</ele>
        <time>2020-02-25T18:57:49Z</time>
      </trkpt>
      <trkpt lat="56.890632897955" lon="14.825178763641">
        <ele>167.6</ele>
        <time>2020-02-25T18:57:50Z</time>
      </trkpt>
      <trkpt lat="56.890580427261" lon="14.825267863238">
        <ele>166.6</ele>
        <time>2020-02-25T18:57:52Z</time>
      </trkpt>
      <trkpt lat="56.890453692933" lon="14.825559720996">
        <ele>166.2</ele>
        <time>2020-02-25T18:57:58Z</time>
      </trkpt>
      <trkpt lat="56.890386973009" lon="14.825838419171">
        <ele>166.2</ele>
        <time>2020-02-25T18:58:02Z</time>
      </trkpt>
      <trkpt lat="56.890308015511" lon="14.826197332129">
        <ele>165.6</ele>
        <time>2020-02-25T18:58:07Z</time>
      </trkpt>
      <trkpt lat="56.890280103784" lon="14.826369831631">
        <ele>166.2</ele>
        <time>2020-02-25T18:58:10Z</time>
      </trkpt>
      <trkpt lat="56.890148424135" lon="14.826304620449">
        <ele>165.4</ele>
        <time>2020-02-25T18:58:14Z</time>
      </trkpt>
      <trkpt lat="56.889953964055" lon="14.826148465652">
        <ele>165.8</ele>
        <time>2020-02-25T18:58:19Z</time>
      </trkpt>
      <trkpt lat="56.889761934726" lon="14.826006224809">
        <ele>166</ele>
        <time>2020-02-25T18:58:24Z</time>
      </trkpt>
      <trkpt lat="56.889575940365" lon="14.825831378375">
        <ele>165.4</ele>
        <time>2020-02-25T18:58:30Z</time>
      </trkpt>
      <trkpt lat="56.889390029823" lon="14.825681007089">
        <ele>164.8</ele>
        <time>2020-02-25T18:58:36Z</time>
      </trkpt>
      <trkpt lat="56.889314676542" lon="14.825547064327">
        <ele>164.6</ele>
        <time>2020-02-25T18:58:39Z</time>
      </trkpt>
      <trkpt lat="56.889317777845" lon="14.825438434903">
        <ele>164.6</ele>
        <time>2020-02-25T18:58:41Z</time>
      </trkpt>
      <trkpt lat="56.889454235177" lon="14.825223690625">
        <ele>165.8</ele>
        <time>2020-02-25T18:58:46Z</time>
      </trkpt>
      <trkpt lat="56.889584070808" lon="14.824990170891">
        <ele>166.4</ele>
        <time>2020-02-25T18:58:52Z</time>
      </trkpt>
      <trkpt lat="56.889607875404" lon="14.824845918392">
        <ele>168</ele>
        <time>2020-02-25T18:58:55Z</time>
      </trkpt>
      <trkpt lat="56.889611228164" lon="14.824749610361">
        <ele>169</ele>
        <time>2020-02-25T18:58:57Z</time>
      </trkpt>
      <trkpt lat="56.889612233992" lon="14.824479210267">
        <ele>170</ele>
        <time>2020-02-25T18:59:01Z</time>
      </trkpt>
      <trkpt lat="56.889595218735" lon="14.824150555968">
        <ele>171</ele>
        <time>2020-02-25T18:59:05Z</time>
      </trkpt>
      <trkpt lat="56.889591530699" lon="14.824070089728">
        <ele>171.2</ele>
        <time>2020-02-25T18:59:06Z</time>
      </trkpt>
      <trkpt lat="56.889558422194" lon="14.82369608935">
        <ele>170.6</ele>
        <time>2020-02-25T18:59:11Z</time>
      </trkpt>
      <trkpt lat="56.889550878484" lon="14.823549825195">
        <ele>170</ele>
        <time>2020-02-25T18:59:13Z</time>
      </trkpt>
      <trkpt lat="56.88962413629" lon="14.82320993915">
        <ele>170.2</ele>
        <time>2020-02-25T18:59:18Z</time>
      </trkpt>
      <trkpt lat="56.889726227832" lon="14.822901317592">
        <ele>171</ele>
        <time>2020-02-25T18:59:23Z</time>
      </trkpt>
      <trkpt lat="56.889745422383" lon="14.822839626808">
        <ele>171.4</ele>
        <time>2020-02-25T18:59:24Z</time>
      </trkpt>
      <trkpt lat="56.889855812006" lon="14.822552546733">
        <ele>172</ele>
        <time>2020-02-25T18:59:29Z</time>
      </trkpt>
      <trkpt lat="56.889966369267" lon="14.822286169951">
        <ele>171.2</ele>
        <time>2020-02-25T18:59:34Z</time>
      </trkpt>
      <trkpt lat="56.890074747234" lon="14.822014512572">
        <ele>171</ele>
        <time>2020-02-25T18:59:39Z</time>
      </trkpt>
      <trkpt lat="56.890125290091" lon="14.821936812359">
        <ele>171.2</ele>
        <time>2020-02-25T18:59:41Z</time>
      </trkpt>
      <trkpt lat="56.890197709707" lon="14.82194511044">
        <ele>171.4</ele>
        <time>2020-02-25T18:59:43Z</time>
      </trkpt>
      <trkpt lat="56.890330898098" lon="14.822138816149">
        <ele>169.8</ele>
        <time>2020-02-25T18:59:47Z</time>
      </trkpt>
      <trkpt lat="56.890429972156" lon="14.822249205772">
        <ele>171.2</ele>
        <time>2020-02-25T18:59:50Z</time>
      </trkpt>
      <trkpt lat="56.890605321504" lon="14.822410138252">
        <ele>171.2</ele>
        <time>2020-02-25T18:59:55Z</time>
      </trkpt>
      <trkpt lat="56.890789639485" lon="14.822570232542">
        <ele>171</ele>
        <time>2020-02-25T19:00:00Z</time>
      </trkpt>
      <trkpt lat="56.890975550027" lon="14.822738205818">
        <ele>171.2</ele>
        <time>2020-02-25T19:00:05Z</time>
      </trkpt>
      <trkpt lat="56.891150145004" lon="14.822940796341">
        <ele>171.6</ele>
        <time>2020-02-25T19:00:10Z</time>
      </trkpt>
      <trkpt lat="56.891309652561" lon="14.823170879496">
        <ele>170.8</ele>
        <time>2020-02-25T19:00:15Z</time>
      </trkpt>
      <trkpt lat="56.891346868197" lon="14.823409176913">
        <ele>170</ele>
        <time>2020-02-25T19:00:19Z</time>
      </trkpt>
      <trkpt lat="56.891234466918" lon="14.823624424105">
        <ele>169</ele>
        <time>2020-02-25T19:00:23Z</time>
      </trkpt>
      <trkpt lat="56.891077809207" lon="14.823877306028">
        <ele>169</ele>
        <time>2020-02-25T19:00:28Z</time>
      </trkpt>
      <trkpt lat="56.890951661612" lon="14.824134965634">
        <ele>168.8</ele>
        <time>2020-02-25T19:00:33Z</time>
      </trkpt>
      <trkpt lat="56.890941938608" lon="14.824185927586">
        <ele>168.8</ele>
        <time>2020-02-25T19:00:35Z</time>
      </trkpt>
      <trkpt lat="56.890995750406" lon="14.824230267837">
        <ele>168.6</ele>
        <time>2020-02-25T19:02:22Z</time>
      </trkpt>
      <trkpt lat="56.891003461754" lon="14.824239823203">
        <ele>168.6</ele>
        <time>2020-02-25T19:02:23Z</time>
      </trkpt>
      <trkpt lat="56.891033385137" lon="14.824289695508">
        <ele>168.8</ele>
        <time>2020-02-25T19:02:26Z</time>
      </trkpt>
      <trkpt lat="56.891038498096" lon="14.824331772646">
        <ele>169</ele>
        <time>2020-02-25T19:02:28Z</time>
      </trkpt>
      <trkpt lat="56.890901705488" lon="14.824549785865">
        <ele>169.4</ele>
        <time>2020-02-25T19:02:36Z</time>
      </trkpt>
      <trkpt lat="56.890823250904" lon="14.824709544879">
        <ele>167.8</ele>
        <time>2020-02-25T19:02:41Z</time>
      </trkpt>
      <trkpt lat="56.890784694164" lon="14.824830328058">
        <ele>166.8</ele>
        <time>2020-02-25T19:02:44Z</time>
      </trkpt>
      <trkpt lat="56.890669191582" lon="14.825115899391">
        <ele>165.6</ele>
        <time>2020-02-25T19:02:51Z</time>
      </trkpt>
      <trkpt lat="56.890529297671" lon="14.825365931468">
        <ele>164.8</ele>
        <time>2020-02-25T19:03:00Z</time>
      </trkpt>
      <trkpt lat="56.890429050147" lon="14.825692993206">
        <ele>165.4</ele>
        <time>2020-02-25T19:03:08Z</time>
      </trkpt>
      <trkpt lat="56.890354367418" lon="14.82604637411">
        <ele>164.8</ele>
        <time>2020-02-25T19:03:14Z</time>
      </trkpt>
      <trkpt lat="56.890311368271" lon="14.826277966007">
        <ele>164.4</ele>
        <time>2020-02-25T19:03:19Z</time>
      </trkpt>
      <trkpt lat="56.890301309991" lon="14.826352648736">
        <ele>166.2</ele>
        <time>2020-02-25T19:03:21Z</time>
      </trkpt>
      <trkpt lat="56.890286893123" lon="14.826427415284">
        <ele>165.2</ele>
        <time>2020-02-25T19:03:23Z</time>
      </trkpt>
      <trkpt lat="56.890282283078" lon="14.826440993962">
        <ele>165.2</ele>
        <time>2020-02-25T19:03:24Z</time>
      </trkpt>
      <trkpt lat="56.890300304163" lon="14.826102784297">
        <ele>164.8</ele>
        <time>2020-02-25T19:03:32Z</time>
      </trkpt>
      <trkpt lat="56.890362497861" lon="14.825764993727">
        <ele>165</ele>
        <time>2020-02-25T19:03:39Z</time>
      </trkpt>
      <trkpt lat="56.890458302978" lon="14.825434076315">
        <ele>166</ele>
        <time>2020-02-25T19:03:47Z</time>
      </trkpt>
      <trkpt lat="56.890477497529" lon="14.825397279774">
        <ele>166.4</ele>
        <time>2020-02-25T19:03:48Z</time>
      </trkpt>
      <trkpt lat="56.890628371729" lon="14.825149594629">
        <ele>165.8</ele>
        <time>2020-02-25T19:03:56Z</time>
      </trkpt>
      <trkpt lat="56.890738845171" lon="14.824845080202">
        <ele>166.2</ele>
        <time>2020-02-25T19:04:04Z</time>
      </trkpt>
      <trkpt lat="56.890831381347" lon="14.824649698113">
        <ele>167.6</ele>
        <time>2020-02-25T19:04:10Z</time>
      </trkpt>
      <trkpt lat="56.890912015225" lon="14.824550456417">
        <ele>168.6</ele>
        <time>2020-02-25T19:04:15Z</time>
      </trkpt>
      <trkpt lat="56.890952835078" lon="14.824478623534">
        <ele>169.8</ele>
        <time>2020-02-25T19:04:18Z</time>
      </trkpt>
      <trkpt lat="56.891050568032" lon="14.824257006098">
        <ele>170.4</ele>
        <time>2020-02-25T19:04:27Z</time>
      </trkpt>
    </trkseg>
  </trk>
</gpx>